Time;durP1;ratioP1;P1;durP2;ratioP2;P2;SDS_P1;SDS_P2;PMS_P1;PMS_P2;Temp;Humidity;BMP_temperature;BMP_pressure;BME280_temperature;BME280_humidity;BME280_pressure;Samples;Min_cycle;Max_cycle;Signal;HPM_P1;HPM_P2
2023/05/05 00:00:07;;;;;;;0.50;0.50;;;;;;;24.42;36.56;101320.19;5008022;28;99018;-76
2023/05/05 00:02:34;;;;;;;0.40;0.40;;;;;;;24.42;36.73;101324.81;5014058;28;96978;-76
2023/05/05 00:05:02;;;;;;;0.55;0.50;;;;;;;24.41;36.38;101321.22;5021174;28;96893;-76
2023/05/05 00:07:28;;;;;;;0.60;0.50;;;;;;;24.42;36.50;101322.94;5022661;28;97548;-76
2023/05/05 00:09:55;;;;;;;0.65;0.50;;;;;;;24.41;36.66;101332.19;5010211;27;97451;-76
2023/05/05 00:12:21;;;;;;;0.50;0.47;;;;;;;24.42;36.85;101333.06;5021348;28;97070;-75
2023/05/05 00:14:48;;;;;;;0.60;0.50;;;;;;;24.42;36.60;101327.56;5014231;28;96792;-76
2023/05/05 00:17:15;;;;;;;0.70;0.50;;;;;;;24.42;36.49;101327.56;5029380;28;96760;-76
2023/05/05 00:19:41;;;;;;;0.45;0.40;;;;;;;24.41;36.46;101326.72;5029579;27;96805;-76
2023/05/05 00:22:08;;;;;;;0.57;0.40;;;;;;;24.42;36.37;101333.06;5029285;27;96830;-76
2023/05/05 00:24:34;;;;;;;0.60;0.50;;;;;;;24.41;36.78;101326.72;5028283;28;96805;-77
2023/05/05 00:27:02;;;;;;;0.70;0.47;;;;;;;24.42;36.60;101336.66;5027290;28;99273;-76
2023/05/05 00:29:29;;;;;;;0.57;0.55;;;;;;;24.40;36.53;101328.59;5027811;28;97320;-76
2023/05/05 00:31:56;;;;;;;0.70;0.50;;;;;;;24.42;36.58;101327.56;5027723;28;96888;-76
2023/05/05 00:34:22;;;;;;;0.70;0.60;;;;;;;24.40;36.48;101320.38;5027932;27;96840;-76
2023/05/05 00:36:49;;;;;;;0.60;0.60;;;;;;;24.41;36.70;101326.72;5027310;27;98954;-76
2023/05/05 00:39:15;;;;;;;0.50;0.50;;;;;;;24.41;36.60;101332.19;5019813;28;96729;-76
2023/05/05 00:41:42;;;;;;;0.60;0.57;;;;;;;24.41;36.67;101323.97;5020618;28;96808;-76
2023/05/05 00:44:08;;;;;;;0.60;0.60;;;;;;;24.40;36.43;101325.00;5021044;28;96825;-76
2023/05/05 00:46:36;;;;;;;0.65;0.50;;;;;;;24.39;36.79;101324.16;5021064;28;99477;-76
2023/05/05 00:49:02;;;;;;;0.60;0.50;;;;;;;24.40;36.69;101334.09;5022040;28;100143;-76
2023/05/05 00:51:30;;;;;;;0.70;0.60;;;;;;;24.40;36.86;101339.59;5008522;28;96688;-76
2023/05/05 00:53:57;;;;;;;0.43;0.40;;;;;;;24.40;36.78;101342.34;5027004;28;96776;-76
2023/05/05 00:56:26;;;;;;;0.80;0.60;;;;;;;24.40;36.45;101339.59;5028610;27;97720;-76
2023/05/05 00:58:53;;;;;;;0.60;0.55;;;;;;;24.40;36.98;101336.00;5026247;27;97296;-76
2023/05/05 01:01:19;;;;;;;0.57;0.57;;;;;;;24.39;36.59;101331.53;5017282;28;96723;-76
2023/05/05 01:03:46;;;;;;;0.70;0.50;;;;;;;24.39;36.57;101329.66;5013053;28;96678;-76
2023/05/05 01:06:31;;;;;;;0.60;0.60;;;;;;;24.41;36.44;101340.44;5013409;28;100834;-76
2023/05/05 01:09:07;;;;;;;0.73;0.60;;;;;;;24.39;36.72;101345.25;5015846;28;97958;-76
2023/05/05 01:11:54;;;;;;;0.93;0.60;;;;;;;24.39;36.51;101351.59;5026298;28;96624;-76
2023/05/05 01:14:35;;;;;;;0.52;0.52;;;;;;;24.39;36.42;101356.25;5015177;27;96731;-76
2023/05/05 01:17:20;;;;;;;1.00;0.70;;;;;;;24.38;36.75;101347.16;5018778;28;97369;-76
2023/05/05 01:20:06;;;;;;;0.68;0.57;;;;;;;24.37;36.68;101355.59;4990465;28;97758;-76
2023/05/05 01:22:38;;;;;;;1.08;0.60;;;;;;;24.37;36.70;101352.84;5011875;28;96796;-76
2023/05/05 01:25:29;;;;;;;0.75;0.57;;;;;;;24.36;36.68;101351.97;5013896;28;97082;-76
2023/05/05 01:28:17;;;;;;;0.60;0.57;;;;;;;24.36;36.86;101359.38;5015317;28;100797;-76
2023/05/05 01:31:08;;;;;;;0.80;0.70;;;;;;;24.36;36.52;101362.09;5027648;27;96860;-76
2023/05/05 01:33:50;;;;;;;0.68;0.63;;;;;;;24.35;36.91;101365.91;5027041;28;96787;-75
2023/05/05 01:36:24;;;;;;;0.70;0.52;;;;;;;24.35;36.91;101368.63;4994238;28;96851;-76
2023/05/05 01:38:56;;;;;;;0.90;0.70;;;;;;;24.35;36.44;101376.88;5006548;28;100183;-76
2023/05/05 01:41:40;;;;;;;0.65;0.55;;;;;;;24.35;37.05;101374.97;5013656;28;97036;-76
2023/05/05 01:44:09;;;;;;;0.88;0.50;;;;;;;24.36;36.55;101378.59;5012154;28;96726;-76
2023/05/05 01:46:36;;;;;;;0.65;0.50;;;;;;;24.36;36.81;101373.09;5019234;28;96908;-76
2023/05/05 01:49:03;;;;;;;0.82;0.60;;;;;;;24.36;36.82;101373.09;5020349;28;100783;-76
2023/05/05 01:51:31;;;;;;;1.23;0.63;;;;;;;24.36;36.87;101370.34;5008379;28;98049;-76
2023/05/05 01:54:04;;;;;;;0.52;0.50;;;;;;;24.36;36.67;101384.94;5019010;28;96737;-76
2023/05/05 01:56:32;;;;;;;0.90;0.70;;;;;;;24.36;36.75;101382.19;5009821;28;96882;-76
2023/05/05 01:59:00;;;;;;;0.70;0.52;;;;;;;24.37;36.63;101377.53;5026625;28;99360;-76
2023/05/05 02:01:29;;;;;;;0.63;0.60;;;;;;;24.36;36.91;101387.66;5022918;28;100220;-76
2023/05/05 02:03:57;;;;;;;0.80;0.60;;;;;;;24.37;36.76;101380.28;5018064;28;96739;-76
2023/05/05 02:06:27;;;;;;;0.93;0.70;;;;;;;24.36;36.86;101373.09;5009982;28;96948;-76
2023/05/05 02:08:57;;;;;;;0.63;0.52;;;;;;;24.36;36.80;101368.44;5016048;28;96865;-76
2023/05/05 02:11:25;;;;;;;0.50;0.40;;;;;;;24.36;36.86;101362.09;5026115;28;98285;-76
2023/05/05 02:13:53;;;;;;;0.57;0.45;;;;;;;24.35;37.03;101352.16;5026620;28;96696;-76
2023/05/05 02:16:21;;;;;;;0.70;0.47;;;;;;;24.35;36.92;101344.78;5020488;28;96797;-76
2023/05/05 02:18:49;;;;;;;0.70;0.70;;;;;;;24.36;36.60;101346.50;5025744;28;96859;-76
2023/05/05 02:21:16;;;;;;;0.90;0.70;;;;;;;24.36;36.64;101360.22;4989493;28;98402;-76
2023/05/05 02:23:46;;;;;;;0.85;0.68;;;;;;;24.36;36.77;101359.38;5013859;28;96723;-76
2023/05/05 02:26:15;;;;;;;0.70;0.68;;;;;;;24.36;36.71;101370.34;5020622;28;96787;-76
2023/05/05 02:29:09;;;;;;;0.90;0.73;;;;;;;24.36;36.81;101379.44;5013253;28;97653;-76
2023/05/05 02:31:43;;;;;;;0.60;0.60;;;;;;;24.34;36.74;101376.03;5011352;27;96750;-77
2023/05/05 02:34:15;;;;;;;0.68;0.60;;;;;;;24.34;37.03;101372.44;5005798;28;96981;-76
2023/05/05 02:36:43;;;;;;;0.65;0.52;;;;;;;24.34;36.89;101366.94;5016505;27;96862;-76
2023/05/05 02:39:16;;;;;;;0.60;0.60;;;;;;;24.34;36.52;101386.16;5007542;28;97568;-76
2023/05/05 02:41:46;;;;;;;0.57;0.57;;;;;;;24.35;36.58;101387.84;5005800;28;97603;-76
2023/05/05 02:44:23;;;;;;;0.60;0.60;;;;;;;24.35;36.98;101379.63;5016269;28;97211;-76
2023/05/05 02:46:50;;;;;;;0.60;0.50;;;;;;;24.35;36.94;101387.84;5024697;28;97296;-76
2023/05/05 02:49:17;;;;;;;0.95;0.65;;;;;;;24.35;36.67;101385.13;5029888;28;97633;-76
2023/05/05 02:51:43;;;;;;;0.60;0.50;;;;;;;24.33;36.82;101377.06;5029793;27;97430;-76
2023/05/05 02:54:19;;;;;;;0.70;0.50;;;;;;;24.34;36.96;101386.16;5016027;28;96623;-76
2023/05/05 02:56:48;;;;;;;0.60;0.60;;;;;;;24.35;36.76;101390.59;5029670;27;96970;-76
2023/05/05 02:59:47;;;;;;;1.40;0.73;;;;;;;24.35;36.75;101396.09;5012136;28;99724;-76
2023/05/05 03:02:42;;;;;;;0.70;0.60;;;;;;;24.33;36.67;101398.16;5014542;28;97810;-76
2023/05/05 03:05:18;;;;;;;0.80;0.75;;;;;;;24.32;36.74;101400.06;5017205;27;97191;-76
2023/05/05 03:07:54;;;;;;;0.68;0.60;;;;;;;24.31;36.76;101401.09;5024808;28;96645;-77
2023/05/05 03:10:30;;;;;;;2.47;0.52;;;;;;;24.31;37.06;101398.34;5009454;28;97579;-76
2023/05/05 03:13:01;;;;;;;0.73;0.60;;;;;;;24.31;36.94;101400.25;5014711;28;98737;-76
2023/05/05 03:15:39;;;;;;;0.68;0.60;;;;;;;24.31;36.84;101401.09;5015701;28;96845;-76
2023/05/05 03:18:09;;;;;;;0.80;0.60;;;;;;;24.31;37.08;101395.59;5015441;28;96994;-76
2023/05/05 03:20:39;;;;;;;0.93;0.77;;;;;;;24.31;36.86;101403.84;5028437;28;100195;-76
2023/05/05 03:23:09;;;;;;;0.70;0.60;;;;;;;24.31;36.94;101406.59;5028889;28;97374;-77
2023/05/05 03:25:47;;;;;;;0.63;0.63;;;;;;;24.32;36.81;101410.19;5000161;28;96826;-76
2023/05/05 03:28:26;;;;;;;0.70;0.60;;;;;;;24.31;36.95;101414.81;5015983;28;96977;-76
2023/05/05 03:30:55;;;;;;;0.60;0.52;;;;;;;24.31;37.07;101416.72;5014904;28;98679;-76
2023/05/05 03:33:21;;;;;;;0.70;0.60;;;;;;;24.30;36.91;101410.38;5009826;28;96685;-76
2023/05/05 03:35:48;;;;;;;0.82;0.80;;;;;;;24.30;36.46;101404.88;5020818;28;96898;-76
2023/05/05 03:38:16;;;;;;;0.60;0.60;;;;;;;24.32;36.78;101404.69;5028859;28;96893;-76
2023/05/05 03:40:44;;;;;;;0.70;0.60;;;;;;;24.31;37.09;101403.00;5018024;28;99274;-76
2023/05/05 03:43:15;;;;;;;0.68;0.55;;;;;;;24.31;36.93;101408.47;5009885;28;98712;-76
2023/05/05 03:45:42;;;;;;;0.70;0.70;;;;;;;24.31;36.70;101422.22;5018403;28;96927;-76
2023/05/05 03:48:09;;;;;;;0.82;0.70;;;;;;;24.31;37.05;101424.94;5013532;27;97007;-76
2023/05/05 03:50:38;;;;;;;0.70;0.70;;;;;;;24.30;36.64;101435.06;4991315;28;96562;-76
2023/05/05 03:53:04;;;;;;;0.98;0.70;;;;;;;24.30;36.70;101426.00;5020569;28;99215;-76
2023/05/05 03:55:31;;;;;;;0.80;0.80;;;;;;;24.31;36.95;101427.69;5013312;28;96965;-76
2023/05/05 03:57:58;;;;;;;0.57;0.50;;;;;;;24.30;36.82;101424.09;5010508;28;96908;-76
2023/05/05 04:00:25;;;;;;;0.70;0.60;;;;;;;24.30;36.85;101428.75;5028400;28;96868;-76
2023/05/05 04:02:51;;;;;;;0.60;0.52;;;;;;;24.30;37.07;101436.97;5026865;27;98364;-76
2023/05/05 04:05:19;;;;;;;0.63;0.60;;;;;;;24.30;36.70;101435.06;5029809;27;96712;-76
2023/05/05 04:07:45;;;;;;;0.80;0.80;;;;;;;24.30;37.05;101428.75;5029059;28;96758;-76
2023/05/05 04:10:13;;;;;;;0.60;0.60;;;;;;;24.29;36.85;101438.00;5028117;28;98680;-76
2023/05/05 04:12:40;;;;;;;0.82;0.75;;;;;;;24.30;37.09;101439.72;5028057;28;99255;-76
2023/05/05 04:15:07;;;;;;;0.68;0.60;;;;;;;24.29;36.95;101438.88;5027989;28;96926;-76
2023/05/05 04:17:34;;;;;;;1.35;0.73;;;;;;;24.30;36.70;101447.94;4996927;28;96752;-76
2023/05/05 04:20:02;;;;;;;0.70;0.70;;;;;;;24.30;36.72;101453.44;5007784;28;99007;-76
2023/05/05 04:22:31;;;;;;;0.60;0.60;;;;;;;24.29;36.97;101451.72;5011025;28;98697;-76
2023/05/05 04:24:58;;;;;;;0.60;0.50;;;;;;;24.29;36.97;101449.00;5028267;27;96761;-76
2023/05/05 04:27:27;;;;;;;0.80;0.60;;;;;;;24.29;36.92;101455.34;5010927;28;96718;-76
2023/05/05 04:29:55;;;;;;;0.60;0.55;;;;;;;24.29;36.94;101459.97;5027843;28;99839;-76
2023/05/05 04:32:23;;;;;;;0.60;0.60;;;;;;;24.29;36.78;101470.94;5027682;28;99296;-77
2023/05/05 04:34:50;;;;;;;0.73;0.70;;;;;;;24.29;36.94;101473.69;5023330;27;96972;-76
2023/05/05 04:37:17;;;;;;;0.70;0.70;;;;;;;24.29;36.83;101474.56;5007877;28;96949;-76
2023/05/05 04:39:45;;;;;;;0.60;0.50;;;;;;;24.29;36.76;101480.03;5025928;28;99170;-76
2023/05/05 04:42:12;;;;;;;0.93;0.70;;;;;;;24.29;36.92;101479.19;5027336;27;99859;-76
2023/05/05 04:44:39;;;;;;;0.60;0.55;;;;;;;24.29;36.80;101479.19;5014843;28;97101;-76
2023/05/05 04:47:06;;;;;;;0.70;0.63;;;;;;;24.30;36.64;101475.41;5011023;28;96974;-76
2023/05/05 04:49:33;;;;;;;0.63;0.52;;;;;;;24.28;36.85;101474.72;5027627;28;99061;-76
2023/05/05 04:52:00;;;;;;;1.08;0.90;;;;;;;24.29;36.89;101481.94;5009191;27;100286;-76
2023/05/05 04:54:26;;;;;;;0.70;0.70;;;;;;;24.29;36.78;101482.78;5017726;28;96783;-76
2023/05/05 04:56:54;;;;;;;0.80;0.70;;;;;;;24.29;36.70;101479.19;5027892;28;97149;-76
2023/05/05 04:59:20;;;;;;;0.55;0.50;;;;;;;24.29;36.71;101482.78;5027623;27;99904;-76
2023/05/05 05:01:47;;;;;;;0.70;0.70;;;;;;;24.28;37.09;101478.34;5026824;28;100562;-76
2023/05/05 05:04:17;;;;;;;0.70;0.68;;;;;;;24.29;37.12;101477.28;5027066;27;97148;-76
2023/05/05 05:06:44;;;;;;;0.70;0.70;;;;;;;24.29;36.75;101482.78;5014522;28;96720;-76
2023/05/05 05:09:11;;;;;;;0.60;0.60;;;;;;;24.29;36.79;101488.28;5026903;28;99184;-76
2023/05/05 05:11:38;;;;;;;0.60;0.60;;;;;;;24.29;36.89;101487.41;5014887;27;97566;-76
2023/05/05 05:14:05;;;;;;;0.70;0.70;;;;;;;24.29;36.82;101481.94;5010977;28;96905;-76
2023/05/05 05:16:32;;;;;;;1.02;0.70;;;;;;;24.29;36.70;101491.03;5027293;28;96875;-76
2023/05/05 05:18:59;;;;;;;0.55;0.50;;;;;;;24.28;36.72;101483.81;5025064;28;97548;-76
2023/05/05 05:21:28;;;;;;;0.70;0.70;;;;;;;24.28;36.82;101485.72;5006893;28;97470;-76
2023/05/05 05:23:55;;;;;;;1.55;0.85;;;;;;;24.28;37.01;101488.47;5022746;28;96737;-76
2023/05/05 05:26:23;;;;;;;0.73;0.68;;;;;;;24.28;36.89;101491.19;5027168;28;96795;-76
2023/05/05 05:28:50;;;;;;;1.13;0.80;;;;;;;24.28;37.09;101485.72;5013083;28;99836;-76
2023/05/05 05:31:17;;;;;;;0.68;0.68;;;;;;;24.28;37.13;101489.31;5026033;28;98889;-76
2023/05/05 05:33:44;;;;;;;0.75;0.65;;;;;;;24.28;36.77;101480.22;5010409;28;96669;-76
2023/05/05 05:36:12;;;;;;;0.45;0.43;;;;;;;24.27;37.14;101484.84;5026919;28;97189;-76
2023/05/05 05:38:39;;;;;;;0.65;0.65;;;;;;;24.27;37.01;101479.38;5009976;28;99468;-76
2023/05/05 05:41:06;;;;;;;0.95;0.70;;;;;;;24.28;36.75;101481.06;5024264;28;97255;-76
2023/05/05 05:43:35;;;;;;;0.60;0.60;;;;;;;24.27;36.68;101484.84;5010816;28;96860;-77
2023/05/05 05:46:03;;;;;;;0.70;0.60;;;;;;;24.27;36.90;101493.09;5018092;28;96975;-76
2023/05/05 05:48:32;;;;;;;0.52;0.52;;;;;;;24.28;37.09;101488.47;5026576;27;99058;-76
2023/05/05 05:50:58;;;;;;;0.60;0.60;;;;;;;24.28;37.22;101488.47;5016596;28;99890;-76
2023/05/05 05:53:25;;;;;;;0.60;0.60;;;;;;;24.28;37.13;101494.81;5022105;28;97170;-76
2023/05/05 05:55:53;;;;;;;0.93;0.70;;;;;;;24.28;36.98;101494.81;5026727;28;97825;-76
2023/05/05 05:58:20;;;;;;;0.70;0.63;;;;;;;24.28;37.04;101502.19;5012073;28;99703;-76
2023/05/05 06:00:47;;;;;;;0.70;0.60;;;;;;;24.28;37.12;101502.19;5009895;28;99767;-76
2023/05/05 06:03:14;;;;;;;0.68;0.60;;;;;;;24.28;37.16;101504.94;5015741;28;97172;-76
2023/05/05 06:05:41;;;;;;;0.60;0.60;;;;;;;24.29;37.00;101503.91;5042686;27;97306;-76
2023/05/05 06:08:08;;;;;;;0.60;0.60;;;;;;;24.29;37.15;101503.91;5040500;27;98516;-77
2023/05/05 06:10:40;;;;;;;0.65;0.60;;;;;;;24.28;37.25;101505.78;5012110;28;97420;-75
2023/05/05 06:13:11;;;;;;;0.75;0.55;;;;;;;24.29;36.85;101501.16;5016724;28;96683;-74
2023/05/05 06:15:42;;;;;;;0.90;0.70;;;;;;;24.29;36.84;101514.88;5012173;28;96795;-73
2023/05/05 06:18:11;;;;;;;0.70;0.52;;;;;;;24.29;36.80;101517.63;5013973;28;100187;-73
2023/05/05 06:20:37;;;;;;;0.70;0.60;;;;;;;24.29;36.95;101529.44;5031296;28;97138;-73
2023/05/05 06:23:05;;;;;;;1.02;0.82;;;;;;;24.28;36.65;101525.00;5031838;28;96701;-73
2023/05/05 06:25:34;;;;;;;0.82;0.70;;;;;;;24.29;36.98;101529.44;5016659;28;97242;-73
2023/05/05 06:28:01;;;;;;;1.13;0.80;;;;;;;24.30;36.96;101533.06;5032015;27;97589;-73
2023/05/05 06:30:28;;;;;;;0.95;0.70;;;;;;;24.31;36.92;101534.75;5031514;27;96833;-73
2023/05/05 06:32:55;;;;;;;0.80;0.80;;;;;;;24.30;36.88;101533.06;5029874;28;96797;-73
2023/05/05 06:35:21;;;;;;;0.80;0.60;;;;;;;24.30;37.15;101536.66;5031826;27;98283;-72
2023/05/05 06:37:48;;;;;;;0.50;0.50;;;;;;;24.30;37.17;101538.53;5012751;27;98001;-73
2023/05/05 06:40:15;;;;;;;0.70;0.60;;;;;;;24.31;36.92;101545.75;5031386;27;97156;-73
2023/05/05 06:42:41;;;;;;;0.68;0.60;;;;;;;24.31;36.87;101540.25;5016749;27;96656;-73
2023/05/05 06:45:14;;;;;;;0.70;0.70;;;;;;;24.31;36.96;101545.75;5010742;28;96953;-72
2023/05/05 06:47:41;;;;;;;0.60;0.60;;;;;;;24.31;36.97;101546.59;5009766;28;96703;-73
2023/05/05 06:50:08;;;;;;;0.80;0.70;;;;;;;24.31;36.92;101548.47;5026502;28;96595;-73
2023/05/05 06:52:35;;;;;;;0.50;0.50;;;;;;;24.31;36.71;101549.34;5021998;27;97186;-73
2023/05/05 06:55:03;;;;;;;0.60;0.60;;;;;;;24.30;37.01;101555.88;5025135;28;96940;-73
2023/05/05 06:57:30;;;;;;;0.70;0.70;;;;;;;24.31;37.19;101559.47;5030616;27;97637;-73
2023/05/05 06:59:56;;;;;;;1.05;0.80;;;;;;;24.31;37.16;101559.47;5029755;28;96723;-73
2023/05/05 07:02:23;;;;;;;0.80;0.75;;;;;;;24.30;36.54;101555.00;5015168;28;96778;-73
2023/05/05 07:04:54;;;;;;;0.70;0.70;;;;;;;24.30;37.09;101555.88;5031022;28;96735;-73
2023/05/05 07:07:21;;;;;;;0.60;0.60;;;;;;;24.29;36.91;101559.66;5011539;27;96682;-73
2023/05/05 07:09:47;;;;;;;1.08;0.85;;;;;;;24.30;37.08;101555.88;5017100;28;97214;-73
2023/05/05 07:12:14;;;;;;;0.82;0.70;;;;;;;24.30;36.94;101555.00;5010507;28;96801;-73
2023/05/05 07:14:40;;;;;;;1.02;0.68;;;;;;;24.32;36.92;101558.44;5019675;28;96737;-73
2023/05/05 07:17:07;;;;;;;0.60;0.60;;;;;;;24.31;36.94;101562.22;5030026;28;97668;-72
2023/05/05 07:19:33;;;;;;;0.60;0.60;;;;;;;24.31;37.00;101559.47;5030749;27;96858;-73
2023/05/05 07:22:00;;;;;;;0.80;0.70;;;;;;;24.30;37.14;101558.63;5029859;27;96810;-73
2023/05/05 07:24:26;;;;;;;0.70;0.70;;;;;;;24.31;37.08;101556.72;5029638;28;96726;-73
2023/05/05 07:26:53;;;;;;;0.88;0.88;;;;;;;24.32;36.96;101566.66;5029022;28;97160;-73
2023/05/05 07:29:19;;;;;;;0.90;0.77;;;;;;;24.30;36.93;101563.25;5029486;27;96670;-73
2023/05/05 07:31:46;;;;;;;0.57;0.57;;;;;;;24.32;37.17;101572.16;5018459;28;96766;-73
2023/05/05 07:34:12;;;;;;;0.70;0.68;;;;;;;24.31;37.18;101571.31;5026009;28;97078;-73
2023/05/05 07:36:39;;;;;;;0.70;0.60;;;;;;;24.32;37.26;101572.16;5028744;28;96861;-72
2023/05/05 07:39:06;;;;;;;0.60;0.55;;;;;;;24.31;37.26;101578.69;5028583;27;100037;-73
2023/05/05 07:41:33;;;;;;;1.00;0.80;;;;;;;24.31;37.05;101576.78;5015308;28;96649;-73
2023/05/05 07:44:00;;;;;;;0.70;0.68;;;;;;;24.31;37.27;101581.44;5021965;28;96841;-72
2023/05/05 07:46:26;;;;;;;0.60;0.60;;;;;;;24.30;37.21;101577.81;5022058;28;99674;-73
2023/05/05 07:48:53;;;;;;;0.85;0.80;;;;;;;24.31;37.16;101573.19;5029114;28;97640;-73
2023/05/05 07:51:20;;;;;;;0.90;0.80;;;;;;;24.32;37.13;101578.50;5030153;27;97189;-73
2023/05/05 07:53:46;;;;;;;0.57;0.55;;;;;;;24.32;37.42;101573.00;5029946;27;96580;-74
2023/05/05 07:56:13;;;;;;;0.90;0.60;;;;;;;24.32;37.13;101570.25;5027749;28;100560;-73
2023/05/05 07:58:41;;;;;;;0.50;0.50;;;;;;;24.33;36.90;101568.38;5029549;28;97545;-73
2023/05/05 08:01:09;;;;;;;0.80;0.65;;;;;;;24.34;37.15;101567.34;5028648;28;97848;-73
2023/05/05 08:03:36;;;;;;;0.75;0.68;;;;;;;24.32;37.22;101564.78;5029726;27;97052;-73
2023/05/05 08:06:10;;;;;;;0.52;0.47;;;;;;;24.34;37.35;101570.94;5029881;28;96617;-73
2023/05/05 08:08:37;;;;;;;0.57;0.40;;;;;;;24.33;37.10;101571.13;5027905;28;98698;-73
2023/05/05 08:11:05;;;;;;;0.95;0.63;;;;;;;24.33;36.92;101561.00;5029567;28;97363;-72
2023/05/05 08:13:33;;;;;;;0.75;0.75;;;;;;;24.34;37.26;101561.84;5028643;28;97066;-73
2023/05/05 08:15:59;;;;;;;0.60;0.60;;;;;;;24.34;36.94;101567.34;5029463;27;97538;-73
2023/05/05 08:18:26;;;;;;;0.73;0.60;;;;;;;24.36;36.97;101565.25;5017677;27;98958;-72
2023/05/05 08:20:53;;;;;;;0.75;0.50;;;;;;;24.36;37.25;101565.25;5026590;28;96817;-73
2023/05/05 08:23:20;;;;;;;0.70;0.70;;;;;;;24.36;37.24;101557.88;5029618;28;97098;-73
2023/05/05 08:25:47;;;;;;;0.70;0.60;;;;;;;24.37;36.96;101566.97;5029267;27;97829;-73
2023/05/05 08:28:13;;;;;;;0.60;0.60;;;;;;;24.37;36.97;101561.47;5027821;28;98547;-73
2023/05/05 08:30:40;;;;;;;0.70;0.70;;;;;;;24.38;37.04;101554.97;5029244;27;96728;-73
2023/05/05 08:33:06;;;;;;;0.65;0.65;;;;;;;24.37;36.81;101554.09;5029532;27;96860;-72
2023/05/05 08:35:33;;;;;;;0.70;0.70;;;;;;;24.39;37.05;101562.16;5011098;28;97746;-73
2023/05/05 08:37:59;;;;;;;0.60;0.50;;;;;;;24.39;36.73;101553.91;5029122;27;97320;-73
2023/05/05 08:40:31;;;;;;;0.70;0.63;;;;;;;24.41;37.10;101546.34;5028155;27;96953;-73
2023/05/05 08:42:58;;;;;;;0.80;0.60;;;;;;;24.40;36.95;101559.22;5028030;28;96693;-74
2023/05/05 08:45:27;;;;;;;0.60;0.60;;;;;;;24.42;36.92;101560.94;5014000;27;97463;-73
2023/05/05 08:48:00;;;;;;;0.90;0.60;;;;;;;24.42;36.95;101559.03;5028753;27;97352;-73
2023/05/05 08:50:27;;;;;;;0.70;0.60;;;;;;;24.42;37.07;101559.03;5028966;27;96532;-73
2023/05/05 08:53:04;;;;;;;0.63;0.50;;;;;;;24.43;37.06;101559.91;5028895;27;96893;-73
2023/05/05 08:55:34;;;;;;;0.80;0.73;;;;;;;24.43;37.15;101569.00;5027843;28;96812;-73
2023/05/05 08:58:04;;;;;;;0.60;0.60;;;;;;;24.44;37.11;101567.09;5015785;28;97185;-73
2023/05/05 09:00:32;;;;;;;0.63;0.63;;;;;;;24.45;36.94;101575.16;5027394;28;97043;-71
2023/05/05 09:02:59;;;;;;;0.70;0.60;;;;;;;24.44;36.96;101570.69;5027426;28;96677;-73
2023/05/05 09:05:27;;;;;;;0.75;0.70;;;;;;;24.46;37.21;101571.38;5028909;28;97967;-73
2023/05/05 09:07:53;;;;;;;0.60;0.60;;;;;;;24.47;37.04;101569.47;5019709;27;97283;-73
2023/05/05 09:10:20;;;;;;;0.70;0.60;;;;;;;24.47;36.98;101577.72;5023290;28;97175;-73
2023/05/05 09:12:49;;;;;;;0.50;0.40;;;;;;;24.48;36.92;101580.28;5027168;28;97021;-73
2023/05/05 09:15:16;;;;;;;0.60;0.60;;;;;;;24.49;37.07;101586.63;5028912;28;97220;-73
2023/05/05 09:17:43;;;;;;;0.55;0.50;;;;;;;24.49;36.95;101582.00;5028315;28;97406;-74
2023/05/05 09:20:11;;;;;;;0.50;0.50;;;;;;;24.50;36.97;101575.47;5029184;28;96669;-73
2023/05/05 09:22:42;;;;;;;0.50;0.50;;;;;;;24.51;37.18;101581.81;5027188;28;96599;-73
2023/05/05 09:25:16;;;;;;;0.70;0.60;;;;;;;24.51;36.88;101581.81;5028026;28;96829;-75
2023/05/05 09:27:45;;;;;;;0.57;0.57;;;;;;;24.51;37.05;101584.56;5013031;27;96860;-72
2023/05/05 09:30:15;;;;;;;0.60;0.50;;;;;;;24.51;37.22;101587.31;5018204;27;96710;-74
2023/05/05 09:32:49;;;;;;;0.60;0.55;;;;;;;24.51;37.18;101576.31;5007255;28;96943;-73
2023/05/05 09:35:18;;;;;;;0.77;0.70;;;;;;;24.51;36.85;101581.81;5026638;28;96721;-74
2023/05/05 09:37:45;;;;;;;0.47;0.45;;;;;;;24.51;37.20;101584.56;5026875;28;98706;-73
2023/05/05 09:40:13;;;;;;;0.70;0.52;;;;;;;24.52;37.04;101583.53;5019688;28;96605;-74
2023/05/05 09:42:41;;;;;;;1.08;0.60;;;;;;;24.53;36.93;101588.00;5021840;28;96723;-74
2023/05/05 09:45:16;;;;;;;0.50;0.50;;;;;;;24.53;36.75;101580.63;5013849;27;96756;-74
2023/05/05 09:47:46;;;;;;;0.70;0.70;;;;;;;24.52;37.04;101578.88;5027494;28;96995;-74
2023/05/05 09:50:17;;;;;;;0.68;0.57;;;;;;;24.53;36.81;101583.38;5028013;27;96681;-75
2023/05/05 09:53:03;;;;;;;0.73;0.57;;;;;;;24.54;37.01;101579.59;5018320;27;97346;-74
2023/05/05 09:55:30;;;;;;;0.50;0.50;;;;;;;24.52;36.86;101576.13;5025655;28;97130;-74
2023/05/05 09:58:16;;;;;;;0.57;0.50;;;;;;;24.54;37.02;101573.25;5028000;28;96651;-74
2023/05/05 10:00:42;;;;;;;0.65;0.57;;;;;;;24.53;36.87;101572.38;5013415;28;96695;-73
2023/05/05 10:03:09;;;;;;;0.70;0.50;;;;;;;24.53;36.80;101575.13;5026539;28;97101;-74
2023/05/05 10:05:50;;;;;;;0.52;0.43;;;;;;;24.53;36.88;101566.91;5027986;28;96856;-74
2023/05/05 10:08:23;;;;;;;0.50;0.50;;;;;;;24.54;36.98;101570.50;5026502;28;97769;-73
2023/05/05 10:10:55;;;;;;;0.70;0.68;;;;;;;24.54;37.10;101570.50;5027693;27;97431;-74
2023/05/05 10:13:23;;;;;;;0.52;0.50;;;;;;;24.53;36.97;101572.38;5028632;27;96722;-73
2023/05/05 10:15:52;;;;;;;0.50;0.45;;;;;;;24.53;36.73;101564.16;5025240;27;97214;-73
2023/05/05 10:18:23;;;;;;;0.50;0.50;;;;;;;24.53;36.87;101564.16;5007871;28;98150;-74
2023/05/05 10:21:01;;;;;;;0.60;0.50;;;;;;;24.55;36.91;101563.97;5006189;28;97167;-74
2023/05/05 10:23:54;;;;;;;0.60;0.50;;;;;;;24.54;37.08;101559.50;5019290;28;97502;-74
2023/05/05 10:26:22;;;;;;;0.63;0.63;;;;;;;24.53;37.02;101560.53;5019019;27;96828;-74
2023/05/05 10:28:55;;;;;;;0.55;0.50;;;;;;;24.53;37.13;101553.16;5008747;28;97335;-73
2023/05/05 10:31:40;;;;;;;0.60;0.50;;;;;;;24.54;37.08;101556.75;5023196;27;97126;-74
2023/05/05 10:34:15;;;;;;;0.50;0.50;;;;;;;24.53;36.99;101553.16;5008080;28;96579;-74
2023/05/05 10:36:43;;;;;;;0.70;0.70;;;;;;;24.54;37.11;101548.53;5005894;28;98843;-74
2023/05/05 10:39:10;;;;;;;0.60;0.60;;;;;;;24.54;36.74;101543.88;5007127;28;97234;-74
2023/05/05 10:41:37;;;;;;;0.73;0.50;;;;;;;24.54;36.73;101546.63;5016185;28;96916;-74
2023/05/05 10:44:05;;;;;;;0.70;0.50;;;;;;;24.53;36.98;101536.69;5019399;28;97110;-74
2023/05/05 10:46:32;;;;;;;0.85;0.52;;;;;;;24.54;36.87;101540.28;5009660;28;99488;-74
2023/05/05 10:49:09;;;;;;;1.80;0.50;;;;;;;24.55;36.69;101537.34;5014298;28;97058;-74
2023/05/05 10:51:38;;;;;;;0.40;0.40;;;;;;;24.55;37.07;101542.00;5005251;28;97353;-74
2023/05/05 10:54:36;;;;;;;0.68;0.60;;;;;;;24.55;36.86;101537.34;5011305;28;96815;-74
2023/05/05 10:57:08;;;;;;;0.55;0.50;;;;;;;24.55;36.79;101531.00;5015299;28;97201;-74
2023/05/05 10:59:35;;;;;;;0.80;0.60;;;;;;;24.54;36.86;101524.66;5014468;28;97233;-74
2023/05/05 11:02:22;;;;;;;0.60;0.50;;;;;;;24.56;37.02;101525.34;5006787;28;96918;-75
2023/05/05 11:05:14;;;;;;;0.60;0.60;;;;;;;24.54;36.87;101527.41;4999638;28;96655;-74
2023/05/05 11:07:41;;;;;;;0.80;0.63;;;;;;;24.53;36.75;101525.69;5020426;28;96875;-73
2023/05/05 11:10:10;;;;;;;0.85;0.70;;;;;;;24.55;36.79;101529.13;5020967;28;100298;-74
2023/05/05 11:12:52;;;;;;;0.40;0.40;;;;;;;24.55;37.01;101520.88;5008524;28;97481;-74
2023/05/05 11:15:25;;;;;;;0.60;0.50;;;;;;;24.55;37.19;101522.78;5008623;28;97451;-75
2023/05/05 11:17:53;;;;;;;0.50;0.50;;;;;;;24.54;37.01;101532.91;5014758;28;96798;-75
2023/05/05 11:20:34;;;;;;;0.60;0.52;;;;;;;24.55;36.92;101533.75;5019093;27;97482;-74
2023/05/05 11:23:01;;;;;;;0.63;0.60;;;;;;;24.54;36.92;101540.28;5023630;28;98832;-74
2023/05/05 11:25:40;;;;;;;0.65;0.50;;;;;;;24.54;36.93;101541.13;5021798;28;98005;-74
2023/05/05 11:28:29;;;;;;;0.60;0.50;;;;;;;24.54;36.74;101541.13;5022832;28;96831;-74
2023/05/05 11:30:59;;;;;;;0.93;0.45;;;;;;;24.52;36.93;101550.56;5027898;28;97132;-75
2023/05/05 11:33:37;;;;;;;0.60;0.52;;;;;;;24.51;37.25;101560.69;5014940;28;98789;-74
2023/05/05 11:36:14;;;;;;;0.65;0.65;;;;;;;24.52;36.90;101561.56;5024257;27;98424;-75